createdAt,value
2017-09-05T00:01:09.852Z,73.90
2017-09-05T00:03:37.927Z,73.90
2017-09-05T00:06:05.486Z,73.90
2017-09-05T00:11:53.289Z,73.80
2017-09-05T00:17:33.268Z,73.70
2017-09-05T00:20:06.319Z,73.80
2017-09-05T00:22:33.851Z,73.80
2017-09-05T00:25:01.351Z,73.90
2017-09-05T00:27:28.844Z,73.90
2017-09-05T00:29:56.370Z,73.90
2017-09-05T00:32:23.859Z,73.90
2017-09-05T00:34:51.350Z,73.90
2017-09-05T00:37:18.874Z,73.90
2017-09-05T00:39:46.362Z,74.00
2017-09-05T00:42:13.847Z,74.00
2017-09-05T00:44:41.373Z,74.00
2017-09-05T00:47:08.965Z,74.10
2017-09-05T00:49:36.489Z,74.20
2017-09-05T00:52:03.974Z,74.20
2017-09-05T00:54:31.493Z,74.10
2017-09-05T00:56:58.974Z,74.10
2017-09-05T00:59:26.491Z,74.10
2017-09-05T01:01:53.969Z,74.10
2017-09-05T01:04:21.502Z,74.10
2017-09-05T01:06:48.984Z,74.10
2017-09-05T01:09:16.478Z,74.00
2017-09-05T01:11:43.995Z,74.10
2017-09-05T01:14:11.481Z,74.10
2017-09-05T01:16:38.992Z,74.10
2017-09-05T01:19:06.479Z,73.90
2017-09-05T01:21:33.999Z,73.90
2017-09-05T01:24:01.491Z,73.90
2017-09-05T01:26:28.982Z,73.90
2017-09-05T01:28:56.496Z,73.90
2017-09-05T01:31:23.985Z,73.90
2017-09-05T01:33:51.504Z,73.90
2017-09-05T01:36:18.987Z,73.80
2017-09-05T01:38:46.515Z,73.80
2017-09-05T01:41:14.003Z,73.90
2017-09-05T01:43:41.488Z,73.90
2017-09-05T01:46:09.009Z,73.80
2017-09-05T01:48:36.502Z,73.80
2017-09-05T01:51:04.017Z,73.90
2017-09-05T01:53:31.501Z,73.90
2017-09-05T01:55:59.031Z,73.90
2017-09-05T01:58:26.521Z,73.80
2017-09-05T02:00:54.011Z,73.90
2017-09-05T02:03:21.538Z,73.90
2017-09-05T02:05:49.024Z,73.90
2017-09-05T02:08:16.513Z,73.90
2017-09-05T02:10:44.036Z,73.90
2017-09-05T02:13:11.518Z,74.00
2017-09-05T02:15:39.047Z,74.00
2017-09-05T02:18:06.527Z,74.00
2017-09-05T02:20:34.011Z,74.20
2017-09-05T02:23:01.524Z,74.50
2017-09-05T02:25:29.041Z,74.40
2017-09-05T02:27:56.532Z,74.50
2017-09-05T02:30:24.040Z,74.60
2017-09-05T02:32:51.534Z,74.70
2017-09-05T02:35:19.045Z,74.70
2017-09-05T02:37:46.565Z,74.70
2017-09-05T02:40:14.071Z,74.70
2017-09-05T02:42:41.557Z,74.60
2017-09-05T02:45:09.086Z,74.50
2017-09-05T02:47:36.580Z,74.40
2017-09-05T02:50:04.416Z,74.40
2017-09-05T02:52:31.943Z,74.30
2017-09-05T02:54:59.434Z,74.30
2017-09-05T02:57:27.331Z,74.40
2017-09-05T02:59:54.848Z,74.30
2017-09-05T03:02:22.363Z,74.30
2017-09-05T03:04:49.857Z,74.30
2017-09-05T03:07:17.375Z,74.40
2017-09-05T03:09:44.896Z,75.00
2017-09-05T03:12:12.376Z,75.10
2017-09-05T03:14:39.892Z,74.40
2017-09-05T03:17:07.889Z,74.30
2017-09-05T03:19:35.402Z,74.30
2017-09-05T03:22:02.934Z,74.40
2017-09-05T03:24:30.424Z,74.40
2017-09-05T03:26:57.909Z,74.50
2017-09-05T03:29:25.454Z,74.60
2017-09-05T03:31:52.963Z,74.60
2017-09-05T03:34:20.449Z,74.70
2017-09-05T03:36:47.971Z,74.80
2017-09-05T03:39:16.007Z,74.90
2017-09-05T03:41:43.792Z,75.00
2017-09-05T03:44:14.634Z,75.00
2017-09-05T03:46:45.686Z,75.10
2017-09-05T03:49:13.847Z,75.20
2017-09-05T03:51:41.369Z,75.30
2017-09-05T03:54:09.687Z,75.30
2017-09-05T03:56:40.228Z,75.40
2017-09-05T03:59:08.215Z,75.50
2017-09-05T04:01:36.276Z,75.70
2017-09-05T04:04:04.859Z,75.60
2017-09-05T04:06:34.592Z,75.70
2017-09-05T04:09:02.972Z,75.70
2017-09-05T04:11:32.388Z,75.90
2017-09-05T04:14:00.468Z,75.90
2017-09-05T04:16:28.048Z,76.00
2017-09-05T04:18:55.564Z,76.00
2017-09-05T04:21:23.056Z,76.10
2017-09-05T04:23:50.596Z,76.10
2017-09-05T04:26:18.085Z,76.10
2017-09-05T04:28:45.568Z,76.10
2017-09-05T04:31:13.095Z,76.10
2017-09-05T04:33:40.592Z,76.10
2017-09-05T04:36:08.118Z,76.10
2017-09-05T04:41:09.625Z,76.80
2017-09-05T04:43:37.121Z,76.10
2017-09-05T04:46:05.404Z,76.20
2017-09-05T04:48:32.898Z,76.20
2017-09-05T04:51:00.416Z,76.20
2017-09-05T04:53:27.930Z,76.20
2017-09-05T04:55:55.456Z,76.20
2017-09-05T04:58:22.960Z,76.30
2017-09-05T05:00:50.489Z,76.40
2017-09-05T05:03:17.977Z,76.40
2017-09-05T05:05:45.504Z,76.40
2017-09-05T05:08:13.012Z,76.40
2017-09-05T05:10:40.548Z,76.40
2017-09-05T05:13:08.039Z,76.40
2017-09-05T05:15:35.536Z,76.40
2017-09-05T05:18:03.059Z,76.40
2017-09-05T05:20:30.552Z,76.40
2017-09-05T05:22:58.072Z,76.50
2017-09-05T05:25:25.596Z,76.60
2017-09-05T05:27:53.088Z,76.60
2017-09-05T05:30:20.612Z,76.60
2017-09-05T05:32:48.098Z,76.60
2017-09-05T05:35:15.629Z,76.70
2017-09-05T05:37:43.121Z,76.70
2017-09-05T05:40:11.416Z,76.80
2017-09-05T05:42:38.907Z,76.70
2017-09-05T05:45:06.400Z,76.80
2017-09-05T05:47:33.916Z,76.90
2017-09-05T05:50:01.445Z,77.50
2017-09-05T05:52:28.948Z,76.90
2017-09-05T05:54:56.450Z,77.00
2017-09-05T05:57:23.992Z,76.90
2017-09-05T05:59:51.481Z,76.90
2017-09-05T06:02:18.989Z,76.90
2017-09-05T06:04:46.504Z,77.00
2017-09-05T06:07:13.995Z,76.90
2017-09-05T06:09:41.510Z,76.90
2017-09-05T06:12:09.008Z,76.90
2017-09-05T06:14:36.548Z,77.00
2017-09-05T06:17:04.039Z,77.00
2017-09-05T06:19:31.534Z,77.00
2017-09-05T06:21:59.053Z,77.10
2017-09-05T06:24:26.546Z,77.00
2017-09-05T06:26:54.058Z,76.90
2017-09-05T06:29:21.548Z,77.10
2017-09-05T06:31:49.078Z,77.10
2017-09-05T06:34:16.574Z,77.00
2017-09-05T06:36:44.097Z,77.10
2017-09-05T06:39:11.609Z,77.20
2017-09-05T06:41:39.096Z,77.20
2017-09-05T06:44:06.624Z,77.20
2017-09-05T06:46:34.120Z,77.20
2017-09-05T06:49:01.641Z,77.20
2017-09-05T06:51:29.134Z,77.10
2017-09-05T06:53:56.660Z,77.00
2017-09-05T06:56:24.196Z,77.10
2017-09-05T06:58:51.684Z,76.90
2017-09-05T07:01:19.212Z,77.00
2017-09-05T07:03:46.696Z,76.90
2017-09-05T07:06:14.239Z,76.80
2017-09-05T07:08:41.733Z,76.70
2017-09-05T07:11:09.223Z,77.30
2017-09-05T07:13:36.749Z,76.50
2017-09-05T07:16:04.253Z,76.50
2017-09-05T07:18:31.777Z,76.40
2017-09-05T07:20:59.265Z,76.30
2017-09-05T07:23:26.793Z,76.10
2017-09-05T07:25:54.292Z,76.00
2017-09-05T07:28:22.548Z,75.90
2017-09-05T07:30:50.079Z,75.80
2017-09-05T07:33:17.578Z,75.80
2017-09-05T07:35:45.074Z,75.70
2017-09-05T07:38:12.594Z,75.60
2017-09-05T07:40:40.856Z,75.70
2017-09-05T07:43:08.376Z,75.70
2017-09-05T07:45:35.880Z,75.60
2017-09-05T07:48:03.409Z,75.60
2017-09-05T07:50:30.893Z,75.60
2017-09-05T07:52:58.428Z,75.80
2017-09-05T07:55:25.916Z,75.70
2017-09-05T07:57:53.409Z,75.50
2017-09-05T08:00:20.945Z,75.30
2017-09-05T08:02:48.436Z,75.30
2017-09-05T08:05:15.921Z,75.20
2017-09-05T08:07:43.441Z,75.40
2017-09-05T08:10:11.754Z,75.00
2017-09-05T08:12:39.244Z,75.00
2017-09-05T08:15:06.732Z,74.90
2017-09-05T08:17:34.381Z,74.60
2017-09-05T08:20:01.905Z,74.40
2017-09-05T08:22:29.401Z,74.90
2017-09-05T08:24:56.945Z,74.30
2017-09-05T08:27:24.433Z,74.30
2017-09-05T08:29:51.927Z,74.30
2017-09-05T08:32:19.726Z,74.10
2017-09-05T08:34:47.215Z,73.80
2017-09-05T08:37:14.748Z,73.50
2017-09-05T08:39:42.260Z,73.10
2017-09-05T08:42:09.800Z,73.00
2017-09-05T08:44:37.296Z,72.90
2017-09-05T08:47:04.791Z,73.00
2017-09-05T08:49:32.312Z,72.80
2017-09-05T08:51:59.808Z,72.60
2017-09-05T08:54:27.328Z,72.50
2017-09-05T08:56:54.828Z,72.50
2017-09-05T08:59:23.083Z,72.10
2017-09-05T09:01:52.617Z,72.00
2017-09-05T09:04:20.117Z,72.00
2017-09-05T09:06:47.642Z,71.50
2017-09-05T09:09:15.274Z,71.30
2017-09-05T09:11:43.077Z,71.30
2017-09-05T09:14:11.008Z,71.20
2017-09-05T09:16:38.500Z,71.20
2017-09-05T09:19:07.662Z,71.30
2017-09-05T09:21:35.625Z,71.30
2017-09-05T09:24:03.174Z,71.50
2017-09-05T09:26:30.687Z,71.40
2017-09-05T09:28:58.183Z,71.40
2017-09-05T09:31:25.713Z,70.80
2017-09-05T09:33:53.217Z,70.70
2017-09-05T09:36:20.727Z,70.60
2017-09-05T09:38:48.254Z,70.70
2017-09-05T09:41:15.748Z,70.70
2017-09-05T09:43:43.234Z,70.70
2017-09-05T09:46:11.523Z,70.60
2017-09-05T09:48:39.018Z,70.60
2017-09-05T09:51:06.540Z,70.60
2017-09-05T09:53:34.037Z,70.40
2017-09-05T09:56:01.556Z,70.20
2017-09-05T09:58:29.848Z,70.30
2017-09-05T10:00:57.340Z,70.20
2017-09-05T10:03:24.868Z,70.30
2017-09-05T10:05:52.361Z,70.20
2017-09-05T10:08:19.846Z,69.70
2017-09-05T10:10:47.371Z,69.60
2017-09-05T10:13:14.869Z,69.50
2017-09-05T10:15:42.408Z,69.40
2017-09-05T10:18:09.920Z,69.50
2017-09-05T10:20:37.412Z,69.40
2017-09-05T10:23:04.941Z,69.30
2017-09-05T10:25:32.432Z,69.40
2017-09-05T10:27:59.952Z,69.30
2017-09-05T10:30:27.443Z,69.20
2017-09-05T10:32:54.988Z,69.40
2017-09-05T10:35:22.473Z,69.40
2017-09-05T10:37:49.964Z,69.40
2017-09-05T10:40:17.487Z,69.30
2017-09-05T10:42:44.993Z,69.30
2017-09-05T10:45:12.480Z,69.20
2017-09-05T10:47:40.103Z,69.00
2017-09-05T10:50:07.604Z,68.70
2017-09-05T10:52:35.093Z,68.70
2017-09-05T10:55:02.616Z,68.70
2017-09-05T10:57:30.125Z,68.80
2017-09-05T10:59:57.640Z,68.60
2017-09-05T11:02:25.176Z,68.60
2017-09-05T11:04:52.673Z,67.80
2017-09-05T11:07:20.172Z,68.30
2017-09-05T11:09:47.733Z,67.70
2017-09-05T11:12:15.239Z,66.80
2017-09-05T11:14:42.777Z,66.90
2017-09-05T11:17:10.503Z,66.90
2017-09-05T11:19:38.025Z,66.80
2017-09-05T11:22:06.423Z,66.10
2017-09-05T11:24:34.055Z,66.50
2017-09-05T11:27:01.553Z,66.50
2017-09-05T11:29:29.058Z,66.70
2017-09-05T11:31:56.601Z,66.80
2017-09-05T11:34:24.237Z,66.80
2017-09-05T11:36:52.859Z,67.00
2017-09-05T11:39:20.381Z,67.40
2017-09-05T11:41:47.909Z,67.20
2017-09-05T11:44:15.650Z,67.50
2017-09-05T11:46:43.190Z,68.00
2017-09-05T11:49:10.684Z,68.00
2017-09-05T11:51:38.199Z,67.90
2017-09-05T11:54:05.799Z,68.00
2017-09-05T11:56:33.421Z,68.00
2017-09-05T11:59:01.795Z,68.10
2017-09-05T12:01:32.092Z,67.60
2017-09-05T12:03:59.603Z,67.40
2017-09-05T12:06:27.648Z,67.00
2017-09-05T12:08:55.198Z,66.90
2017-09-05T12:11:22.745Z,66.40
2017-09-05T12:13:50.324Z,66.30
2017-09-05T12:16:17.885Z,66.00
2017-09-05T12:18:45.385Z,66.00
2017-09-05T12:21:12.877Z,65.60
2017-09-05T12:23:40.408Z,65.70
2017-09-05T12:26:07.936Z,65.80
2017-09-05T12:28:35.423Z,65.70
2017-09-05T12:31:02.953Z,65.00
2017-09-05T12:33:30.461Z,65.00
2017-09-05T12:35:57.988Z,64.70
2017-09-05T12:38:25.490Z,64.40
2017-09-05T12:40:53.156Z,63.70
2017-09-05T12:43:20.704Z,63.10
2017-09-05T12:45:48.248Z,62.80
2017-09-05T12:48:15.792Z,62.40
2017-09-05T12:50:43.448Z,62.40
2017-09-05T12:53:11.413Z,62.50
2017-09-05T12:55:38.989Z,62.20
2017-09-05T12:58:06.493Z,62.50
2017-09-05T13:00:34.011Z,62.40
2017-09-05T13:03:01.938Z,61.20
2017-09-05T13:05:29.538Z,61.40
2017-09-05T13:07:57.709Z,61.40
2017-09-05T13:10:25.688Z,61.50
2017-09-05T13:12:53.198Z,60.90
2017-09-05T13:15:20.693Z,61.50
2017-09-05T13:17:48.233Z,61.30
2017-09-05T13:20:15.742Z,61.50
2017-09-05T13:22:43.241Z,59.70
2017-09-05T13:25:10.768Z,60.60
2017-09-05T13:27:38.257Z,60.90
2017-09-05T13:30:05.881Z,60.70
2017-09-05T13:32:33.373Z,60.00
2017-09-05T13:35:00.917Z,60.00
2017-09-05T13:37:28.412Z,60.20
2017-09-05T13:39:55.905Z,60.10
2017-09-05T13:42:23.454Z,60.30
2017-09-05T13:44:50.944Z,60.50
2017-09-05T13:47:18.437Z,60.80
2017-09-05T13:49:45.955Z,61.40
2017-09-05T13:52:13.480Z,62.10
2017-09-05T13:54:40.976Z,62.20
2017-09-05T13:57:08.490Z,62.40
2017-09-05T13:59:35.981Z,62.50
2017-09-05T14:02:03.497Z,62.70
2017-09-05T14:04:30.993Z,62.90
2017-09-05T14:06:58.517Z,62.60
2017-09-05T14:09:26.008Z,62.70
2017-09-05T14:11:53.531Z,62.70
2017-09-05T14:14:21.064Z,63.00
2017-09-05T14:16:48.563Z,62.70
2017-09-05T14:19:16.052Z,62.40
2017-09-05T14:21:43.576Z,61.70
2017-09-05T14:24:11.092Z,60.90
2017-09-05T14:26:38.613Z,60.40
2017-09-05T14:29:06.867Z,59.60
2017-09-05T14:31:34.409Z,59.60
2017-09-05T14:34:01.899Z,59.50
2017-09-05T14:36:29.396Z,59.50
2017-09-05T14:38:56.936Z,59.60
2017-09-05T14:41:24.429Z,59.70
2017-09-05T14:43:51.922Z,59.20
2017-09-05T14:46:19.462Z,59.20
2017-09-05T14:48:46.952Z,59.10
2017-09-05T14:51:14.447Z,59.00
2017-09-05T14:53:42.001Z,58.60
2017-09-05T14:56:09.504Z,58.80
2017-09-05T14:58:37.021Z,59.00
2017-09-05T15:01:04.553Z,59.40
2017-09-05T15:03:32.058Z,59.90
2017-09-05T15:05:59.570Z,60.30
2017-09-05T15:08:27.859Z,61.70
2017-09-05T15:10:55.381Z,61.60
2017-09-05T15:13:22.880Z,62.40
2017-09-05T15:15:50.407Z,63.00
2017-09-05T15:18:17.892Z,63.70
2017-09-05T15:20:45.428Z,64.50
2017-09-05T15:23:12.958Z,64.70
2017-09-05T15:25:40.473Z,65.40
2017-09-05T15:28:08.045Z,65.70
2017-09-05T15:30:35.562Z,66.20
2017-09-05T15:33:03.058Z,66.40
2017-09-05T15:35:30.609Z,66.80
2017-09-05T15:37:58.109Z,67.20
2017-09-05T15:40:25.628Z,67.50
2017-09-05T15:42:53.129Z,67.60
2017-09-05T15:45:20.672Z,67.60
2017-09-05T15:47:48.162Z,67.90
2017-09-05T15:50:15.692Z,67.50
2017-09-05T15:52:43.268Z,67.60
2017-09-05T15:55:10.776Z,67.80
2017-09-05T15:57:39.277Z,68.00
2017-09-05T16:00:06.839Z,68.30
2017-09-05T16:02:34.355Z,68.40
2017-09-05T16:05:01.904Z,68.50
2017-09-05T16:07:29.455Z,68.50
2017-09-05T16:09:56.957Z,68.40
2017-09-05T16:12:24.475Z,69.20
2017-09-05T16:14:52.008Z,67.90
2017-09-05T16:17:19.561Z,66.70
2017-09-05T16:19:47.067Z,66.40
2017-09-05T16:22:14.588Z,66.10
2017-09-05T16:24:42.120Z,66.10
2017-09-05T16:27:09.664Z,66.30
2017-09-05T16:29:37.222Z,66.50
2017-09-05T16:32:04.726Z,66.80
2017-09-05T16:34:32.268Z,66.90
2017-09-05T16:36:59.828Z,66.90
2017-09-05T16:39:27.386Z,66.80
2017-09-05T16:41:54.942Z,66.80
2017-09-05T16:44:22.525Z,67.00
2017-09-05T16:46:50.085Z,67.40
2017-09-05T16:49:17.610Z,67.50
2017-09-05T16:51:45.152Z,67.40
2017-09-05T16:54:12.760Z,67.50
2017-09-05T16:56:40.322Z,67.70
2017-09-05T16:59:08.042Z,67.90
2017-09-05T17:01:35.747Z,68.10
2017-09-05T17:04:03.348Z,68.20
2017-09-05T17:06:30.905Z,68.50
2017-09-05T17:08:58.468Z,68.50
2017-09-05T17:11:26.058Z,68.80
2017-09-05T17:13:53.623Z,69.00
2017-09-05T17:16:21.246Z,69.20
2017-09-05T17:18:48.812Z,69.40
2017-09-05T17:21:17.311Z,69.80
2017-09-05T17:23:45.662Z,70.30
2017-09-05T17:26:13.360Z,70.20
2017-09-05T17:28:40.954Z,70.50
2017-09-05T17:31:08.515Z,70.50
2017-09-05T17:33:36.219Z,70.90
2017-09-05T17:36:03.796Z,71.20
2017-09-05T17:38:31.425Z,71.20
2017-09-05T17:40:59.152Z,71.10
2017-09-05T17:43:26.964Z,71.30
2017-09-05T17:45:54.515Z,71.40
2017-09-05T17:48:22.135Z,71.70
2017-09-05T17:50:49.702Z,72.30
2017-09-05T17:53:17.383Z,71.80
2017-09-05T17:55:44.979Z,71.90
2017-09-05T17:58:13.305Z,72.30
2017-09-05T18:00:41.023Z,72.30
2017-09-05T18:03:08.578Z,72.40
2017-09-05T18:05:36.267Z,72.50
2017-09-05T18:08:03.860Z,72.50
2017-09-05T18:10:31.651Z,72.70
2017-09-05T18:13:00.197Z,72.80
2017-09-05T18:15:27.770Z,72.90
2017-09-05T18:20:29.394Z,73.10
2017-09-05T18:22:57.066Z,73.20
2017-09-05T18:25:24.792Z,73.40
2017-09-05T18:27:52.493Z,73.40
2017-09-05T18:30:20.188Z,73.30
2017-09-05T18:32:47.822Z,73.40
2017-09-05T18:35:15.377Z,73.30
2017-09-05T18:37:42.925Z,73.30
2017-09-05T18:40:10.537Z,73.50
2017-09-05T18:42:38.083Z,73.50
2017-09-05T18:45:05.655Z,73.60
2017-09-05T18:47:33.368Z,73.70
2017-09-05T18:50:00.890Z,73.70
2017-09-05T18:52:28.387Z,73.60
2017-09-05T18:54:56.075Z,73.70
2017-09-05T18:57:23.670Z,73.80
2017-09-05T18:59:51.366Z,73.90
2017-09-05T19:02:18.906Z,73.90
2017-09-05T19:04:46.594Z,73.80
2017-09-05T19:07:14.280Z,74.00
2017-09-05T19:09:41.875Z,74.10
2017-09-05T19:12:09.581Z,74.10
2017-09-05T19:14:37.142Z,74.20
2017-09-05T19:17:04.917Z,74.20
2017-09-05T19:19:32.599Z,74.20
2017-09-05T19:22:00.223Z,74.30
2017-09-05T19:24:27.911Z,74.30
2017-09-05T19:26:55.620Z,74.30
2017-09-05T19:29:23.210Z,74.40
2017-09-05T19:31:50.880Z,74.50
2017-09-05T19:34:18.479Z,74.40
2017-09-05T19:36:46.048Z,74.50
2017-09-05T19:39:13.767Z,74.70
2017-09-05T19:41:41.480Z,74.70
2017-09-05T19:44:09.073Z,74.60
2017-09-05T19:46:36.673Z,74.70
2017-09-05T19:49:04.397Z,74.80
2017-09-05T19:51:31.957Z,74.80
2017-09-05T19:53:59.703Z,74.80
2017-09-05T19:56:27.260Z,74.90
2017-09-05T19:58:54.806Z,75.00
2017-09-05T20:01:22.525Z,74.90
2017-09-05T20:03:50.218Z,75.00
2017-09-05T20:06:17.797Z,75.00
2017-09-05T20:08:45.484Z,75.00
2017-09-05T20:11:13.074Z,75.00
2017-09-05T20:13:40.573Z,75.10
2017-09-05T20:16:08.161Z,75.10
2017-09-05T20:18:35.727Z,75.10
2017-09-05T20:21:03.465Z,75.20
2017-09-05T20:23:31.152Z,75.20
2017-09-05T20:25:58.707Z,75.20
2017-09-05T20:28:26.521Z,75.30
2017-09-05T20:30:54.227Z,75.30
2017-09-05T20:33:21.959Z,75.20
2017-09-05T20:35:49.506Z,75.30
2017-09-05T20:38:17.068Z,75.30
2017-09-05T20:40:44.669Z,75.30
2017-09-05T20:43:12.177Z,75.40
2017-09-05T20:45:39.709Z,75.40
2017-09-05T20:48:07.281Z,75.50
2017-09-05T20:50:34.899Z,75.60
2017-09-05T20:53:02.404Z,75.60
2017-09-05T20:55:29.978Z,75.60
2017-09-05T20:57:57.469Z,75.60
2017-09-05T21:00:25.038Z,75.60
2017-09-05T21:02:52.556Z,75.60
2017-09-05T21:05:20.118Z,75.60
2017-09-05T21:07:47.713Z,75.60
2017-09-05T21:10:15.280Z,75.50
2017-09-05T21:12:42.910Z,75.50
2017-09-05T21:15:10.480Z,75.50
2017-09-05T21:17:37.978Z,75.60
2017-09-05T21:20:05.518Z,75.60
2017-09-05T21:22:33.013Z,76.20
2017-09-05T21:25:00.569Z,75.60
2017-09-05T21:27:28.157Z,75.50
2017-09-05T21:29:55.712Z,75.60
2017-09-05T21:32:23.241Z,75.60
2017-09-05T21:34:50.732Z,75.60
2017-09-05T21:37:18.292Z,75.60
2017-09-05T21:39:45.824Z,75.50
2017-09-05T21:42:13.381Z,75.60
2017-09-05T21:44:40.908Z,75.60
2017-09-05T21:47:08.391Z,75.60
2017-09-05T21:49:35.924Z,75.60
2017-09-05T21:52:03.512Z,75.50
2017-09-05T21:54:31.073Z,75.60
2017-09-05T21:56:58.602Z,75.60
2017-09-05T21:59:26.179Z,75.70
2017-09-05T22:01:53.676Z,75.80
2017-09-05T22:04:21.183Z,75.80
2017-09-05T22:06:48.707Z,75.90
2017-09-05T22:09:16.277Z,75.90
2017-09-05T22:11:43.772Z,75.90
2017-09-05T22:14:16.920Z,75.90
2017-09-05T22:16:44.492Z,75.90
2017-09-05T22:19:17.706Z,75.90
2017-09-05T22:21:45.244Z,75.90
2017-09-05T22:24:12.750Z,75.90
2017-09-05T22:26:45.917Z,76.00
2017-09-05T22:29:13.411Z,76.10
2017-09-05T22:31:40.952Z,76.00
2017-09-05T22:34:08.454Z,76.00
2017-09-05T22:36:35.953Z,76.10
2017-09-05T22:39:03.488Z,76.20
2017-09-05T22:41:30.980Z,76.20
2017-09-05T22:43:58.507Z,76.20
2017-09-05T22:46:25.997Z,76.20
2017-09-05T22:48:53.533Z,76.20
2017-09-05T22:51:21.028Z,76.20
2017-09-05T22:53:48.524Z,76.20
2017-09-05T22:56:16.040Z,76.10
2017-09-05T22:58:43.534Z,76.30
2017-09-05T23:01:11.052Z,76.30
2017-09-05T23:03:38.573Z,76.30
2017-09-05T23:06:06.060Z,76.30
2017-09-05T23:08:33.631Z,76.40
2017-09-05T23:11:01.128Z,76.40
2017-09-05T23:13:28.665Z,76.40
2017-09-05T23:15:56.157Z,76.40
2017-09-05T23:18:23.647Z,76.40
2017-09-05T23:20:51.172Z,76.40
2017-09-05T23:23:18.685Z,76.40
2017-09-05T23:25:46.204Z,76.40
2017-09-05T23:28:13.705Z,76.50
2017-09-05T23:30:41.238Z,76.40
2017-09-05T23:33:08.729Z,76.60
2017-09-05T23:35:36.231Z,76.60
2017-09-05T23:38:03.764Z,76.50
2017-09-05T23:40:31.257Z,76.60
2017-09-05T23:42:58.784Z,76.50
2017-09-05T23:45:26.268Z,76.50
2017-09-05T23:47:53.757Z,76.40
2017-09-05T23:50:21.284Z,76.40
2017-09-05T23:52:48.772Z,76.40
2017-09-05T23:55:16.292Z,76.50
2017-09-05T23:57:43.828Z,76.50
